createdAt,value
2018-06-10T00:02:22.677Z,10.83
2018-06-10T00:04:51.071Z,12.33
2018-06-10T00:07:19.544Z,11.90
2018-06-10T00:09:48.176Z,12.17
2018-06-10T00:12:16.685Z,12.10
2018-06-10T00:14:45.199Z,11.73
2018-06-10T00:17:13.636Z,12.20
2018-06-10T00:19:42.244Z,11.43
2018-06-10T00:22:11.471Z,12.20
2018-06-10T00:24:40.620Z,12.27
2018-06-10T00:27:09.411Z,12.07
2018-06-10T00:29:38.412Z,12.97
2018-06-10T00:32:06.865Z,11.97
2018-06-10T00:34:35.365Z,11.73
2018-06-10T00:37:03.824Z,12.00
2018-06-10T00:39:32.445Z,11.30
2018-06-10T00:42:00.830Z,11.83
2018-06-10T00:44:29.473Z,12.10
2018-06-10T00:46:57.955Z,12.50
2018-06-10T00:49:26.507Z,12.00
2018-06-10T00:51:54.917Z,12.30
2018-06-10T00:54:23.486Z,12.83
2018-06-10T00:56:53.314Z,12.33
2018-06-10T00:59:22.257Z,12.47
2018-06-10T01:01:51.216Z,12.50
2018-06-10T01:04:20.248Z,12.23
2018-06-10T01:06:48.715Z,12.53
2018-06-10T01:09:17.260Z,12.43
2018-06-10T01:11:45.740Z,12.57
2018-06-10T01:14:14.360Z,13.10
2018-06-10T01:16:42.821Z,11.87
2018-06-10T01:19:11.393Z,12.50
2018-06-10T01:21:39.860Z,12.10
2018-06-10T01:24:08.445Z,11.77
2018-06-10T01:26:42.361Z,12.50
2018-06-10T01:29:11.693Z,13.10
2018-06-10T01:31:40.565Z,12.67
2018-06-10T01:34:08.999Z,12.40
2018-06-10T01:36:37.490Z,12.83
2018-06-10T01:39:07.266Z,12.87
2018-06-10T01:41:35.982Z,13.17
2018-06-10T01:44:04.448Z,12.23
2018-06-10T01:46:32.938Z,13.33
2018-06-10T01:49:01.406Z,12.83
2018-06-10T01:51:31.030Z,12.60
2018-06-10T01:53:59.526Z,12.50
2018-06-10T01:56:28.129Z,12.63
2018-06-10T01:58:56.750Z,13.20
2018-06-10T02:01:25.382Z,14.40
2018-06-10T02:03:53.840Z,13.77
2018-06-10T02:06:22.321Z,13.53
2018-06-10T02:08:50.835Z,13.40
2018-06-10T02:11:19.455Z,14.27
2018-06-10T02:13:47.859Z,13.47
2018-06-10T02:16:16.461Z,14.57
2018-06-10T02:18:44.951Z,15.27
2018-06-10T02:21:13.444Z,14.67
2018-06-10T02:23:42.524Z,14.33
2018-06-10T02:26:11.662Z,15.33
2018-06-10T02:28:40.760Z,15.97
2018-06-10T02:31:09.224Z,15.50
2018-06-10T02:33:38.162Z,15.23
2018-06-10T02:36:06.720Z,15.53
2018-06-10T02:38:35.112Z,15.07
2018-06-10T02:41:03.645Z,16.53
2018-06-10T02:43:32.087Z,17.27
2018-06-10T02:46:00.613Z,16.57
2018-06-10T02:48:29.028Z,16.33
2018-06-10T02:50:57.618Z,16.90
2018-06-10T02:53:26.088Z,16.93
2018-06-10T02:55:54.280Z,17.57
2018-06-10T02:58:22.718Z,15.27
2018-06-10T03:00:51.138Z,16.53
2018-06-10T03:03:19.635Z,16.43
2018-06-10T03:05:48.117Z,16.93
2018-06-10T03:08:16.672Z,15.93
2018-06-10T03:10:45.219Z,16.90
2018-06-10T03:13:13.649Z,16.03
2018-06-10T03:15:42.209Z,19.43
2018-06-10T03:18:11.300Z,18.30
2018-06-10T03:20:40.493Z,18.87
2018-06-10T03:23:08.973Z,19.93
2018-06-10T03:25:37.551Z,19.13
2018-06-10T03:28:06.075Z,17.87
2018-06-10T03:30:34.681Z,21.47
2018-06-10T03:33:03.176Z,19.73
2018-06-10T03:35:31.736Z,18.97
2018-06-10T03:38:00.257Z,20.97
2018-06-10T03:40:28.880Z,20.73
2018-06-10T03:42:57.293Z,19.90
2018-06-10T03:45:26.108Z,19.63
2018-06-10T03:47:54.659Z,20.67
2018-06-10T03:50:24.118Z,19.73
2018-06-10T03:52:52.674Z,18.10
2018-06-10T03:55:21.237Z,18.87
2018-06-10T03:57:49.763Z,18.70
2018-06-10T04:00:19.343Z,20.73
2018-06-10T04:02:47.841Z,19.57
2018-06-10T04:05:16.396Z,20.57
2018-06-10T04:07:44.854Z,22.40
2018-06-10T04:10:14.364Z,21.43
2018-06-10T04:12:42.873Z,19.70
2018-06-10T04:15:12.181Z,21.53
2018-06-10T04:17:41.012Z,20.33
2018-06-10T04:20:10.690Z,21.63
2018-06-10T04:22:39.162Z,19.77
2018-06-10T04:25:08.291Z,20.90
2018-06-10T04:27:36.749Z,22.07
2018-06-10T04:30:06.352Z,22.60
2018-06-10T04:32:34.922Z,26.03
2018-06-10T04:35:03.397Z,24.87
2018-06-10T04:37:31.962Z,22.93
2018-06-10T04:40:00.614Z,23.80
2018-06-10T04:42:29.158Z,24.43
2018-06-10T04:44:57.723Z,24.10
2018-06-10T04:47:28.340Z,25.83
2018-06-10T04:49:57.710Z,24.77
2018-06-10T04:52:26.384Z,26.47
2018-06-10T04:54:54.845Z,27.20
2018-06-10T04:57:23.327Z,24.20
2018-06-10T04:59:51.880Z,25.60
2018-06-10T05:02:20.428Z,25.87
2018-06-10T05:04:48.557Z,25.90
2018-06-10T05:07:17.011Z,26.40
2018-06-10T05:09:45.545Z,25.33
2018-06-10T05:12:14.093Z,27.37
2018-06-10T05:14:43.744Z,27.67
2018-06-10T05:17:11.857Z,29.93
2018-06-10T05:19:40.657Z,27.30
2018-06-10T05:22:09.301Z,27.50
2018-06-10T05:24:37.955Z,27.50
2018-06-10T05:27:06.455Z,29.57
2018-06-10T05:29:35.036Z,27.53
2018-06-10T05:32:03.338Z,27.63
2018-06-10T05:34:31.928Z,29.50
2018-06-10T05:37:00.421Z,26.27
2018-06-10T05:39:28.909Z,27.90
2018-06-10T05:41:57.419Z,28.47
2018-06-10T05:44:25.617Z,28.40
2018-06-10T05:46:54.044Z,28.47
2018-06-10T05:49:22.471Z,29.13
2018-06-10T05:51:50.956Z,28.30
2018-06-10T05:54:19.507Z,29.13
2018-06-10T05:56:48.074Z,29.23
2018-06-10T05:59:16.579Z,29.97
2018-06-10T06:01:45.012Z,30.47
2018-06-10T06:04:13.516Z,29.13
2018-06-10T06:06:42.385Z,28.83
2018-06-10T06:09:11.623Z,28.57
2018-06-10T06:11:40.587Z,28.07
2018-06-10T06:14:09.107Z,28.40
2018-06-10T06:16:37.661Z,28.10
2018-06-10T06:19:06.124Z,28.23
2018-06-10T06:21:34.566Z,29.10
2018-06-10T06:24:03.083Z,26.27
2018-06-10T06:26:31.540Z,26.27
2018-06-10T06:29:00.066Z,27.97
2018-06-10T06:31:28.621Z,28.33
2018-06-10T06:33:57.131Z,27.87
2018-06-10T06:36:25.556Z,29.00
2018-06-10T06:38:54.002Z,27.33
2018-06-10T06:41:22.529Z,30.97
2018-06-10T06:43:51.069Z,28.70
2018-06-10T06:46:19.505Z,29.23
2018-06-10T06:48:47.986Z,28.60
2018-06-10T06:51:16.552Z,28.70
2018-06-10T06:53:45.087Z,28.20
2018-06-10T06:56:13.467Z,27.17
2018-06-10T06:58:42.748Z,28.20
2018-06-10T07:01:11.984Z,27.23
2018-06-10T07:03:40.707Z,27.90
2018-06-10T07:06:09.964Z,28.47
2018-06-10T07:08:38.421Z,27.77
2018-06-10T07:11:06.950Z,28.27
2018-06-10T07:13:35.485Z,27.03
2018-06-10T07:16:03.999Z,27.40
2018-06-10T07:18:32.520Z,27.70
2018-06-10T07:21:01.009Z,25.90
2018-06-10T07:23:29.598Z,26.23
2018-06-10T07:25:58.102Z,26.13
2018-06-10T07:28:26.666Z,28.87
2018-06-10T07:30:55.186Z,28.00
2018-06-10T07:33:23.722Z,25.60
2018-06-10T07:35:52.111Z,26.60
2018-06-10T07:38:20.717Z,26.07
2018-06-10T07:40:49.235Z,28.80
2018-06-10T07:43:17.738Z,27.90
2018-06-10T07:45:46.214Z,27.03
2018-06-10T07:48:14.819Z,27.20
2018-06-10T07:50:43.493Z,25.17
2018-06-10T07:53:12.712Z,28.87
2018-06-10T07:55:41.587Z,26.10
2018-06-10T07:58:10.901Z,28.17
2018-06-10T08:00:39.359Z,30.43
2018-06-10T08:03:07.890Z,27.67
2018-06-10T08:05:36.380Z,25.80
2018-06-10T08:08:04.954Z,27.77
2018-06-10T08:10:33.440Z,25.53
2018-06-10T08:13:01.819Z,26.03
2018-06-10T08:15:30.243Z,27.27
2018-06-10T08:17:58.854Z,24.70
2018-06-10T08:20:27.358Z,23.73
2018-06-10T08:23:01.900Z,25.03
2018-06-10T08:25:30.398Z,23.23
2018-06-10T08:27:58.863Z,23.80
2018-06-10T08:30:27.373Z,25.23
2018-06-10T08:32:55.865Z,26.00
2018-06-10T08:35:24.108Z,25.07
2018-06-10T08:37:52.582Z,23.30
2018-06-10T08:40:21.115Z,23.30
2018-06-10T08:42:49.555Z,23.83
2018-06-10T08:45:17.996Z,22.57
2018-06-10T08:47:46.467Z,24.97
2018-06-10T08:50:15.036Z,23.90
2018-06-10T08:52:43.460Z,24.23
2018-06-10T08:55:13.099Z,23.47
2018-06-10T08:57:42.348Z,23.73
2018-06-10T09:00:10.789Z,23.20
2018-06-10T09:02:39.416Z,23.03
2018-06-10T09:05:07.979Z,23.93
2018-06-10T09:07:36.508Z,23.93
2018-06-10T09:10:05.408Z,22.93
2018-06-10T09:12:33.971Z,22.40
2018-06-10T09:15:02.413Z,25.00
2018-06-10T09:17:30.922Z,25.30
2018-06-10T09:19:59.439Z,25.33
2018-06-10T09:22:27.989Z,25.60
2018-06-10T09:24:56.426Z,24.20
2018-06-10T09:27:24.960Z,23.60
2018-06-10T09:29:53.493Z,24.70
2018-06-10T09:32:22.119Z,24.33
2018-06-10T09:34:50.560Z,25.63
2018-06-10T09:37:19.093Z,23.83
2018-06-10T09:39:47.582Z,22.40
2018-06-10T09:42:16.141Z,23.13
2018-06-10T09:44:44.665Z,21.83
2018-06-10T09:47:13.275Z,22.30
2018-06-10T09:49:42.499Z,23.57
2018-06-10T09:52:11.624Z,23.23
2018-06-10T09:54:40.439Z,23.87
2018-06-10T09:57:08.919Z,22.90
2018-06-10T09:59:37.372Z,22.63
2018-06-10T10:02:05.995Z,22.30
2018-06-10T10:04:34.548Z,23.27
2018-06-10T10:07:03.465Z,21.67
2018-06-10T10:09:31.893Z,21.47
2018-06-10T10:12:00.394Z,20.80
2018-06-10T10:14:28.933Z,22.27
2018-06-10T10:16:57.703Z,22.57
2018-06-10T10:19:26.163Z,22.37
2018-06-10T10:21:54.688Z,21.83
2018-06-10T10:24:23.159Z,19.73
2018-06-10T10:26:51.706Z,19.60
2018-06-10T10:29:20.131Z,18.73
2018-06-10T10:31:48.804Z,19.27
2018-06-10T10:34:17.517Z,18.53
2018-06-10T10:36:46.099Z,19.83
2018-06-10T10:39:14.637Z,19.87
2018-06-10T10:41:43.145Z,19.40
2018-06-10T10:44:11.931Z,19.37
2018-06-10T10:46:40.804Z,19.30
2018-06-10T10:49:09.291Z,19.93
2018-06-10T10:51:37.852Z,20.10
2018-06-10T10:54:06.359Z,19.00
2018-06-10T10:56:34.937Z,18.00
2018-06-10T10:59:03.445Z,18.37
2018-06-10T11:01:31.981Z,18.97
2018-06-10T11:04:00.379Z,17.53
2018-06-10T11:06:28.940Z,17.70
2018-06-10T11:08:57.341Z,16.67
2018-06-10T11:11:26.003Z,17.30
2018-06-10T11:13:54.412Z,17.70
2018-06-10T11:16:22.937Z,18.33
2018-06-10T11:18:51.372Z,17.77
2018-06-10T11:21:19.985Z,17.20
2018-06-10T11:23:48.401Z,16.37
2018-06-10T11:26:17.025Z,16.63
2018-06-10T11:28:45.519Z,16.70
2018-06-10T11:31:14.152Z,17.00
2018-06-10T11:33:42.962Z,16.27
2018-06-10T11:36:12.448Z,11.20
2018-06-10T11:38:40.944Z,11.93
2018-06-10T11:41:09.600Z,11.57
2018-06-10T11:43:38.122Z,11.53
2018-06-10T11:46:06.711Z,10.27
2018-06-10T11:48:35.232Z,10.10
2018-06-10T11:51:04.796Z,10.17
2018-06-10T11:53:33.257Z,10.30
2018-06-10T11:56:01.946Z,9.93
2018-06-10T11:58:30.505Z,10.20
2018-06-10T12:00:58.991Z,8.37
2018-06-10T12:03:27.447Z,8.83
2018-06-10T12:05:56.012Z,9.53
2018-06-10T12:08:24.439Z,9.13
2018-06-10T12:10:53.009Z,9.10
2018-06-10T12:13:21.701Z,9.10
2018-06-10T12:15:50.302Z,8.70
2018-06-10T12:18:18.717Z,9.87
2018-06-10T12:20:47.310Z,11.07
2018-06-10T12:23:15.805Z,12.47
2018-06-10T12:25:44.371Z,11.80
2018-06-10T12:28:13.781Z,10.97
2018-06-10T12:30:43.016Z,11.57
2018-06-10T12:33:12.576Z,11.50
2018-06-10T12:35:41.666Z,11.07
2018-06-10T12:38:10.205Z,10.93
2018-06-10T12:40:38.834Z,11.20
2018-06-10T12:43:07.219Z,10.33
2018-06-10T12:45:35.753Z,10.53
2018-06-10T12:48:04.607Z,9.60
2018-06-10T12:50:33.090Z,9.43
2018-06-10T12:53:01.569Z,10.80
2018-06-10T12:55:30.126Z,10.50
2018-06-10T12:57:58.676Z,10.50
2018-06-10T13:00:28.257Z,9.97
2018-06-10T13:02:56.695Z,9.40
2018-06-10T13:05:25.270Z,10.07
2018-06-10T13:07:53.830Z,10.57
2018-06-10T13:10:23.443Z,10.70
2018-06-10T13:12:51.981Z,9.80
2018-06-10T13:15:20.661Z,10.17
2018-06-10T13:17:49.178Z,9.50
2018-06-10T13:20:18.632Z,9.40
2018-06-10T13:22:47.100Z,10.30
2018-06-10T13:25:15.834Z,9.77
2018-06-10T13:27:44.392Z,9.37
2018-06-10T13:30:13.985Z,9.00
2018-06-10T13:32:43.069Z,9.13
2018-06-10T13:35:12.286Z,8.93
2018-06-10T13:37:41.095Z,11.13
2018-06-10T13:40:11.000Z,10.57
2018-06-10T13:42:39.408Z,10.40
2018-06-10T13:45:08.032Z,11.40
2018-06-10T13:47:36.457Z,11.13
2018-06-10T13:50:06.000Z,10.53
2018-06-10T13:52:34.519Z,10.60
2018-06-10T13:55:03.509Z,10.47
2018-06-10T13:57:32.336Z,10.50
2018-06-10T14:00:01.886Z,10.97
2018-06-10T14:02:30.490Z,11.07
2018-06-10T14:04:59.200Z,10.93
2018-06-10T14:07:27.732Z,10.87
2018-06-10T14:09:56.512Z,11.07
2018-06-10T14:12:24.994Z,10.47
2018-06-10T14:14:53.612Z,10.87
2018-06-10T14:17:22.106Z,10.30
2018-06-10T14:19:50.733Z,10.33
2018-06-10T14:22:19.259Z,9.70
2018-06-10T14:24:47.904Z,10.20
2018-06-10T14:27:16.284Z,9.70
2018-06-10T14:29:45.033Z,10.13
2018-06-10T14:32:13.510Z,9.40
2018-06-10T14:34:42.561Z,10.00
2018-06-10T14:37:11.112Z,9.53
2018-06-10T14:39:39.410Z,9.67
2018-06-10T14:42:08.163Z,9.00
2018-06-10T14:44:36.696Z,8.83
2018-06-10T14:47:05.263Z,8.93
2018-06-10T14:49:33.927Z,7.87
2018-06-10T14:52:02.583Z,8.80
2018-06-10T14:54:31.130Z,9.20
2018-06-10T14:56:59.668Z,9.37
2018-06-10T14:59:28.062Z,8.77
2018-06-10T15:01:56.711Z,8.40
2018-06-10T15:04:25.096Z,8.47
2018-06-10T15:06:53.784Z,8.33
2018-06-10T15:09:22.190Z,9.60
2018-06-10T15:11:50.705Z,9.10
2018-06-10T15:14:19.132Z,8.00
2018-06-10T15:16:47.779Z,8.33
2018-06-10T15:19:16.282Z,8.50
2018-06-10T15:21:44.822Z,8.00
2018-06-10T15:24:13.232Z,8.10
2018-06-10T15:26:42.329Z,8.13
2018-06-10T15:29:11.132Z,8.70
2018-06-10T15:31:39.625Z,8.37
2018-06-10T15:34:08.234Z,8.50
2018-06-10T15:36:36.696Z,8.67
2018-06-10T15:39:07.478Z,8.10
2018-06-10T15:41:35.985Z,8.83
2018-06-10T15:44:04.576Z,8.67
2018-06-10T15:46:32.999Z,9.10
2018-06-10T15:49:01.708Z,8.63
2018-06-10T15:51:30.173Z,8.97
2018-06-10T15:53:58.719Z,8.10
2018-06-10T15:56:27.239Z,7.03
2018-06-10T15:58:55.686Z,6.80
2018-06-10T16:01:24.120Z,6.13
2018-06-10T16:03:52.705Z,5.03
2018-06-10T16:06:21.166Z,5.30
2018-06-10T16:08:49.827Z,5.40
2018-06-10T16:11:18.349Z,5.20
2018-06-10T16:13:46.694Z,4.87
2018-06-10T16:16:15.228Z,4.17
2018-06-10T16:18:43.635Z,4.37
2018-06-10T16:21:12.648Z,4.50
2018-06-10T16:23:41.200Z,4.40
2018-06-10T16:26:09.676Z,4.73
2018-06-10T16:28:38.140Z,4.87
2018-06-10T16:31:06.712Z,4.73
2018-06-10T16:33:35.151Z,3.90
2018-06-10T16:36:03.740Z,4.20
2018-06-10T16:38:32.284Z,4.00
2018-06-10T16:41:01.011Z,3.77
2018-06-10T16:43:29.529Z,3.73
2018-06-10T16:45:58.098Z,4.13
2018-06-10T16:48:26.551Z,3.80
2018-06-10T16:50:55.120Z,3.53
2018-06-10T16:53:23.536Z,4.47
2018-06-10T16:55:52.263Z,4.40
2018-06-10T16:58:20.941Z,4.43
2018-06-10T17:00:49.366Z,4.27
2018-06-10T17:03:17.922Z,4.40
2018-06-10T17:05:46.545Z,4.50
2018-06-10T17:08:15.072Z,4.70
2018-06-10T17:10:43.556Z,7.00
2018-06-10T17:13:12.635Z,7.90
2018-06-10T17:15:42.020Z,6.93
2018-06-10T17:18:11.327Z,6.80
2018-06-10T17:20:39.858Z,5.57
2018-06-10T17:23:08.278Z,4.57
2018-06-10T17:25:36.944Z,5.47
2018-06-10T17:28:05.456Z,5.50
2018-06-10T17:30:34.138Z,6.07
2018-06-10T17:33:02.610Z,5.07
2018-06-10T17:35:31.248Z,5.27
2018-06-10T17:37:59.708Z,4.90
2018-06-10T17:40:28.507Z,4.80
2018-06-10T17:42:56.943Z,4.20
2018-06-10T17:45:25.417Z,4.80
2018-06-10T17:47:53.852Z,4.90
2018-06-10T17:50:22.461Z,4.93
2018-06-10T17:52:50.975Z,4.87
2018-06-10T17:55:19.439Z,4.83
2018-06-10T17:57:47.995Z,4.50
2018-06-10T18:00:16.576Z,4.87
2018-06-10T18:02:45.044Z,5.37
2018-06-10T18:05:13.604Z,5.70
2018-06-10T18:07:42.723Z,5.10
2018-06-10T18:10:12.040Z,4.90
2018-06-10T18:12:41.474Z,5.10
2018-06-10T18:15:10.273Z,5.00
2018-06-10T18:17:38.709Z,5.20
2018-06-10T18:20:07.231Z,4.73
2018-06-10T18:22:35.703Z,4.83
2018-06-10T18:25:04.666Z,4.87
2018-06-10T18:27:33.089Z,5.40
2018-06-10T18:30:01.542Z,5.03
2018-06-10T18:32:30.092Z,5.17
2018-06-10T18:34:58.887Z,5.00
2018-06-10T18:37:27.376Z,4.73
2018-06-10T18:39:55.925Z,4.90
2018-06-10T18:42:24.441Z,5.67
2018-06-10T18:44:52.980Z,5.13
2018-06-10T18:47:21.560Z,5.57
2018-06-10T18:49:50.122Z,6.00
2018-06-10T18:52:18.744Z,6.43
2018-06-10T18:54:47.182Z,5.83
2018-06-10T18:57:15.668Z,6.20
2018-06-10T18:59:44.088Z,5.80
2018-06-10T19:02:13.528Z,6.17
2018-06-10T19:04:42.655Z,6.20
2018-06-10T19:07:12.285Z,6.20
2018-06-10T19:09:40.739Z,6.13
2018-06-10T19:12:09.293Z,6.50
2018-06-10T19:14:37.758Z,5.77
2018-06-10T19:17:06.328Z,6.63
2018-06-10T19:19:34.802Z,6.03
2018-06-10T19:22:03.459Z,6.17
2018-06-10T19:24:31.963Z,6.37
2018-06-10T19:27:00.546Z,6.17
2018-06-10T19:29:29.029Z,6.23
2018-06-10T19:31:57.645Z,6.57
2018-06-10T19:34:26.071Z,7.10
2018-06-10T19:36:54.637Z,6.87
2018-06-10T19:39:23.148Z,6.63
2018-06-10T19:41:51.775Z,6.83
2018-06-10T19:44:20.233Z,6.40
2018-06-10T19:46:48.842Z,7.07
2018-06-10T19:49:17.345Z,6.87
2018-06-10T19:51:45.972Z,6.83
2018-06-10T19:54:14.413Z,7.20
2018-06-10T19:56:43.745Z,6.80
2018-06-10T19:59:12.728Z,6.63
2018-06-10T20:01:41.274Z,7.13
2018-06-10T20:04:09.760Z,6.87
2018-06-10T20:06:38.024Z,6.57
2018-06-10T20:09:08.300Z,7.63
2018-06-10T20:11:36.814Z,7.40
2018-06-10T20:14:05.253Z,7.50
2018-06-10T20:16:33.877Z,8.37
2018-06-10T20:19:02.344Z,7.43
2018-06-10T20:21:30.991Z,7.43
2018-06-10T20:23:59.509Z,8.00
2018-06-10T20:26:28.128Z,7.83
2018-06-10T20:28:56.524Z,7.87
2018-06-10T20:31:25.093Z,8.37
2018-06-10T20:33:53.565Z,7.33
2018-06-10T20:36:22.133Z,8.70
2018-06-10T20:38:50.597Z,8.30
2018-06-10T20:41:19.119Z,8.10
2018-06-10T20:43:47.576Z,8.20
2018-06-10T20:46:16.134Z,8.60
2018-06-10T20:48:44.681Z,8.40
2018-06-10T20:51:13.513Z,8.10
2018-06-10T20:53:42.748Z,8.10
2018-06-10T20:56:13.501Z,8.37
2018-06-10T20:58:42.599Z,8.10
2018-06-10T21:01:11.271Z,8.23
2018-06-10T21:03:39.827Z,7.87
2018-06-10T21:06:08.458Z,7.73
2018-06-10T21:08:36.936Z,7.80
2018-06-10T21:11:05.420Z,7.27
2018-06-10T21:13:33.874Z,7.50
2018-06-10T21:16:02.345Z,7.23
2018-06-10T21:18:30.816Z,7.60
2018-06-10T21:20:59.419Z,6.97
2018-06-10T21:23:27.780Z,6.73
2018-06-10T21:25:56.379Z,7.50
2018-06-10T21:28:24.872Z,6.97
2018-06-10T21:30:53.441Z,6.30
2018-06-10T21:33:21.942Z,6.07
2018-06-10T21:35:50.425Z,6.20
2018-06-10T21:38:18.936Z,6.03
2018-06-10T21:40:47.412Z,5.70
2018-06-10T21:43:15.953Z,5.53
2018-06-10T21:45:44.459Z,5.33
2018-06-10T21:48:13.541Z,5.87
2018-06-10T21:50:43.065Z,5.80
2018-06-10T21:53:12.139Z,5.60
2018-06-10T21:55:41.454Z,5.00
2018-06-10T21:58:09.927Z,5.30
2018-06-10T22:00:38.553Z,5.47
2018-06-10T22:03:07.077Z,5.30
2018-06-10T22:05:35.630Z,5.00
2018-06-10T22:08:04.130Z,5.00
2018-06-10T22:10:32.689Z,5.30
2018-06-10T22:13:01.118Z,4.93
2018-06-10T22:15:30.413Z,4.90
2018-06-10T22:17:58.823Z,5.07
2018-06-10T22:20:27.404Z,5.00
2018-06-10T22:22:55.836Z,5.03
2018-06-10T22:25:24.372Z,5.30
2018-06-10T22:27:52.874Z,5.43
2018-06-10T22:30:21.443Z,5.30
2018-06-10T22:32:49.923Z,4.77
2018-06-10T22:35:18.560Z,5.07
2018-06-10T22:37:46.960Z,4.90
2018-06-10T22:40:15.632Z,4.87
2018-06-10T22:42:44.134Z,5.57
2018-06-10T22:45:13.403Z,5.27
2018-06-10T22:47:42.319Z,5.60
2018-06-10T22:50:12.632Z,5.50
2018-06-10T22:52:41.461Z,5.50
2018-06-10T22:55:10.058Z,5.83
2018-06-10T22:57:38.533Z,5.97
2018-06-10T23:00:08.252Z,5.67
2018-06-10T23:02:36.872Z,5.50
2018-06-10T23:05:05.422Z,6.23
2018-06-10T23:07:33.787Z,5.80
2018-06-10T23:10:02.467Z,5.57
2018-06-10T23:12:31.023Z,6.20
2018-06-10T23:14:59.578Z,5.80
2018-06-10T23:17:27.980Z,5.47
2018-06-10T23:19:56.580Z,5.80
2018-06-10T23:22:25.053Z,5.10
2018-06-10T23:24:53.528Z,5.33
2018-06-10T23:27:22.117Z,5.50
2018-06-10T23:29:50.785Z,5.87
2018-06-10T23:32:19.240Z,6.30
2018-06-10T23:34:47.997Z,5.63
2018-06-10T23:37:16.455Z,5.90
2018-06-10T23:39:45.050Z,5.90
2018-06-10T23:42:13.525Z,5.83
2018-06-10T23:44:42.540Z,5.87
2018-06-10T23:47:10.974Z,5.80
2018-06-10T23:49:53.995Z,5.87
2018-06-10T23:52:22.518Z,6.07
2018-06-10T23:54:51.622Z,6.00
2018-06-10T23:57:20.092Z,6.57
2018-06-10T23:59:48.434Z,6.37
